Time;durP1;ratioP1;P1;durP2;ratioP2;P2;SDS_P1;SDS_P2;PMS_P1;PMS_P2;Temp;Humidity;BMP_temperature;BMP_pressure;BME280_temperature;BME280_humidity;BME280_pressure;Samples;Min_cycle;Max_cycle;Signal;HPM_P1;HPM_P2
2020/12/17 00:00:50;;;;;;;19.80;17.77;;;10.80;93.70;;;;;;5072274;28;20683;-53
2020/12/17 00:03:17;;;;;;;22.17;18.77;;;10.80;93.70;;;;;;5071550;28;21037;-51
2020/12/17 00:05:43;;;;;;;17.90;16.07;;;10.80;93.70;;;;;;5072598;28;20689;-52
2020/12/17 00:08:10;;;;;;;24.40;19.70;;;10.70;93.70;;;;;;5071803;28;20617;-52
2020/12/17 00:10:38;;;;;;;20.57;18.33;;;10.70;93.80;;;;;;5070779;28;20673;-51
2020/12/17 00:13:06;;;;;;;21.10;18.90;;;10.70;93.70;;;;;;5071345;28;20684;-52
2020/12/17 00:15:33;;;;;;;24.80;18.37;;;10.70;93.70;;;;;;5071672;28;21207;-50
2020/12/17 00:18:00;;;;;;;25.40;19.07;;;10.70;93.60;;;;;;5052822;28;20679;-52
2020/12/17 00:20:27;;;;;;;20.27;17.93;;;10.70;93.50;;;;;;5056925;28;20660;-52
2020/12/17 00:22:53;;;;;;;22.00;19.67;;;10.60;93.20;;;;;;5056464;28;20641;-51
2020/12/17 00:25:20;;;;;;;23.10;18.93;;;10.60;93.20;;;;;;5055345;28;20660;-51
2020/12/17 00:27:47;;;;;;;23.37;18.27;;;10.60;93.20;;;;;;5053937;28;20661;-53
2020/12/17 00:30:15;;;;;;;20.57;17.27;;;10.50;93.10;;;;;;5052216;28;20693;-53
2020/12/17 00:32:42;;;;;;;21.97;16.87;;;10.50;93.20;;;;;;5053288;28;20736;-53
2020/12/17 00:35:09;;;;;;;21.90;18.63;;;10.50;93.30;;;;;;5052179;28;20661;-52
2020/12/17 00:37:36;;;;;;;20.90;18.13;;;10.50;93.40;;;;;;5051944;28;20657;-54
2020/12/17 00:40:03;;;;;;;20.60;18.60;;;10.50;93.40;;;;;;5052158;28;20654;-53
2020/12/17 00:42:30;;;;;;;19.77;17.83;;;10.50;93.40;;;;;;5051984;28;20685;-53
2020/12/17 00:44:57;;;;;;;18.90;16.63;;;10.40;93.30;;;;;;5051787;28;20655;-52
2020/12/17 00:47:29;;;;;;;21.57;16.80;;;10.40;93.30;;;;;;5051562;28;20694;-52
2020/12/17 00:49:56;;;;;;;19.70;17.80;;;10.40;93.30;;;;;;5062155;28;20685;-50
2020/12/17 00:52:22;;;;;;;18.70;16.70;;;10.40;93.30;;;;;;5050795;28;20662;-52
2020/12/17 00:54:49;;;;;;;15.33;13.83;;;10.40;93.20;;;;;;5067973;28;20664;-51
2020/12/17 00:57:16;;;;;;;15.07;13.57;;;10.50;93.10;;;;;;5058825;28;20642;-51
2020/12/17 00:59:43;;;;;;;13.70;12.50;;;10.40;93.00;;;;;;5051399;28;20661;-52
2020/12/17 01:02:09;;;;;;;15.93;14.43;;;10.40;93.00;;;;;;5070991;28;20653;-52
2020/12/17 01:04:37;;;;;;;16.87;15.23;;;10.40;92.90;;;;;;5060211;28;20660;-52
2020/12/17 01:07:04;;;;;;;14.67;13.43;;;10.40;93.20;;;;;;5051512;28;20646;-52
2020/12/17 01:09:31;;;;;;;16.10;14.60;;;10.40;92.80;;;;;;5056417;28;20648;-51
2020/12/17 01:11:57;;;;;;;14.17;12.77;;;10.40;92.70;;;;;;5072043;28;20667;-51
2020/12/17 01:14:24;;;;;;;16.07;14.67;;;10.30;92.80;;;;;;5070592;28;21042;-52
2020/12/17 01:16:51;;;;;;;13.73;12.33;;;10.30;92.90;;;;;;5071113;28;20701;-52
2020/12/17 01:19:17;;;;;;;13.33;12.03;;;10.20;92.90;;;;;;5070917;28;20663;-51
2020/12/17 01:21:45;;;;;;;14.40;13.00;;;10.20;93.20;;;;;;5065603;28;20684;-51
2020/12/17 01:24:12;;;;;;;14.90;13.40;;;10.20;93.00;;;;;;5062182;28;20664;-52
2020/12/17 01:26:38;;;;;;;15.07;13.57;;;10.20;92.80;;;;;;5071315;28;20665;-51
2020/12/17 01:29:05;;;;;;;14.17;12.67;;;10.20;92.80;;;;;;5071131;28;20657;-51
2020/12/17 01:31:32;;;;;;;15.27;13.67;;;10.20;92.70;;;;;;5071250;28;20689;-51
2020/12/17 01:33:59;;;;;;;12.73;11.40;;;10.20;92.60;;;;;;5071211;28;21208;-51
2020/12/17 01:36:25;;;;;;;19.03;12.60;;;10.10;92.60;;;;;;5071468;28;20714;-51
2020/12/17 01:38:53;;;;;;;14.10;12.80;;;10.10;92.60;;;;;;5071584;28;20660;-51
2020/12/17 01:41:20;;;;;;;15.90;12.90;;;10.10;92.60;;;;;;5071083;28;20668;-52
2020/12/17 01:43:46;;;;;;;14.93;13.37;;;10.10;92.60;;;;;;5071714;28;20677;-52
2020/12/17 01:46:14;;;;;;;14.83;13.40;;;10.10;92.60;;;;;;5071675;28;21250;-51
2020/12/17 01:48:41;;;;;;;12.80;11.70;;;10.10;92.80;;;;;;5070585;28;20694;-52
2020/12/17 01:51:08;;;;;;;12.90;11.70;;;10.00;92.20;;;;;;5062010;28;20718;-52
2020/12/17 01:53:37;;;;;;;13.70;12.30;;;10.00;92.30;;;;;;5056988;28;20701;-51
2020/12/17 01:56:06;;;;;;;14.07;12.77;;;10.00;92.40;;;;;;5070749;28;20621;-51
2020/12/17 01:58:36;;;;;;;12.30;11.03;;;10.10;92.40;;;;;;5070868;28;20653;-51
2020/12/17 02:01:02;;;;;;;13.63;12.33;;;10.00;92.30;;;;;;5070638;28;20625;-51
2020/12/17 02:03:29;;;;;;;13.90;12.53;;;10.00;92.30;;;;;;5071870;28;20699;-52
2020/12/17 02:05:57;;;;;;;13.00;11.40;;;9.90;92.90;;;;;;5074725;28;20652;-52
2020/12/17 02:08:24;;;;;;;12.93;11.63;;;9.90;92.90;;;;;;5059830;28;20661;-51
2020/12/17 02:10:51;;;;;;;11.83;10.83;;;9.90;92.90;;;;;;5065731;28;21133;-51
2020/12/17 02:13:32;;;;;;;12.87;11.57;;;9.90;93.00;;;;;;5074690;28;20676;-52
2020/12/17 02:16:00;;;;;;;12.20;11.10;;;9.90;93.10;;;;;;5074644;28;21038;-52
2020/12/17 02:18:27;;;;;;;11.47;10.27;;;9.90;93.00;;;;;;5073854;28;20628;-51
2020/12/17 02:20:54;;;;;;;11.53;10.53;;;9.90;93.00;;;;;;5074150;28;20652;-51
2020/12/17 02:23:21;;;;;;;13.83;12.40;;;9.90;92.90;;;;;;5074141;28;20739;-51
2020/12/17 02:25:48;;;;;;;12.30;11.17;;;9.80;92.80;;;;;;5074217;28;20664;-51
2020/12/17 02:28:15;;;;;;;12.73;11.43;;;9.80;92.80;;;;;;5074009;28;20672;-51
2020/12/17 02:30:42;;;;;;;13.60;11.93;;;9.80;92.90;;;;;;5072748;28;20673;-52
2020/12/17 02:33:09;;;;;;;13.77;11.07;;;9.80;92.80;;;;;;5073959;28;20715;-52
2020/12/17 02:35:36;;;;;;;10.40;9.40;;;9.80;92.80;;;;;;5074112;28;20625;-52
2020/12/17 02:38:02;;;;;;;12.07;10.50;;;9.70;92.60;;;;;;5073873;28;20759;-52
2020/12/17 02:40:29;;;;;;;11.90;10.80;;;9.70;92.70;;;;;;5073936;28;20656;-52
2020/12/17 02:42:57;;;;;;;11.97;10.87;;;9.70;92.70;;;;;;5073877;28;20683;-52
2020/12/17 02:45:24;;;;;;;11.20;9.50;;;9.70;92.70;;;;;;5073765;28;20664;-51
2020/12/17 02:47:51;;;;;;;12.83;11.53;;;9.70;92.70;;;;;;5073575;28;20656;-52
2020/12/17 02:50:17;;;;;;;10.93;9.90;;;9.60;92.60;;;;;;5073737;28;20721;-51
2020/12/17 02:52:44;;;;;;;11.30;10.13;;;9.60;92.70;;;;;;5073449;28;20689;-51
2020/12/17 02:55:11;;;;;;;13.53;9.73;;;9.60;92.60;;;;;;5073389;28;20999;-51
2020/12/17 02:57:38;;;;;;;12.33;10.50;;;9.60;92.50;;;;;;5073690;28;20652;-52
2020/12/17 03:00:06;;;;;;;11.03;9.90;;;9.60;92.60;;;;;;5074248;28;20625;-51
2020/12/17 03:02:33;;;;;;;10.70;9.63;;;9.60;92.50;;;;;;5073493;28;20691;-52
2020/12/17 03:05:00;;;;;;;12.70;10.33;;;9.60;92.50;;;;;;5073573;28;20653;-52
2020/12/17 03:07:27;;;;;;;10.87;9.87;;;9.60;92.50;;;;;;5073666;28;20639;-52
2020/12/17 03:09:53;;;;;;;11.53;10.43;;;9.50;92.50;;;;;;5073228;28;21006;-51
2020/12/17 03:12:20;;;;;;;12.10;10.87;;;9.60;92.60;;;;;;5073487;28;20653;-52
2020/12/17 03:14:47;;;;;;;10.53;9.43;;;9.50;92.50;;;;;;5052526;28;20623;-51
2020/12/17 03:17:14;;;;;;;20.20;11.00;;;9.40;92.60;;;;;;5053070;28;20710;-51
2020/12/17 03:19:41;;;;;;;13.93;10.83;;;9.50;92.70;;;;;;5052920;28;20629;-51
2020/12/17 03:22:08;;;;;;;11.20;10.00;;;9.50;92.70;;;;;;5053011;28;20689;-52
2020/12/17 03:24:35;;;;;;;11.20;10.07;;;9.50;92.60;;;;;;5065542;28;20665;-52
2020/12/17 03:27:02;;;;;;;11.67;10.20;;;9.50;92.60;;;;;;5072642;28;20656;-52
2020/12/17 03:29:28;;;;;;;10.80;9.80;;;9.40;92.60;;;;;;5071954;28;20660;-51
2020/12/17 03:31:55;;;;;;;15.97;12.07;;;9.40;92.50;;;;;;5071706;28;20685;-53
2020/12/17 03:34:23;;;;;;;12.30;10.93;;;9.40;92.40;;;;;;5072983;28;20653;-53
2020/12/17 03:36:49;;;;;;;10.80;9.77;;;9.40;92.50;;;;;;5073033;28;20662;-53
2020/12/17 03:39:16;;;;;;;11.10;10.10;;;9.40;92.60;;;;;;5056323;28;20622;-53
2020/12/17 03:41:43;;;;;;;10.20;9.33;;;9.40;92.40;;;;;;5053841;28;20632;-53
2020/12/17 03:44:09;;;;;;;11.10;10.00;;;9.40;92.80;;;;;;5052391;28;20685;-53
2020/12/17 03:46:36;;;;;;;10.90;9.43;;;9.40;92.60;;;;;;5054046;28;21151;-54
2020/12/17 03:49:06;;;;;;;10.87;9.80;;;9.40;92.60;;;;;;5068905;28;21028;-53
2020/12/17 03:51:34;;;;;;;12.17;10.97;;;9.30;92.50;;;;;;5068729;28;20712;-53
2020/12/17 03:54:01;;;;;;;13.10;10.43;;;9.40;92.50;;;;;;5060568;28;20665;-53
2020/12/17 03:56:28;;;;;;;11.13;10.13;;;9.30;92.30;;;;;;5069361;28;20651;-53
2020/12/17 03:58:54;;;;;;;13.20;10.80;;;9.30;92.10;;;;;;5072523;28;20660;-54
2020/12/17 04:01:21;;;;;;;11.90;10.70;;;9.30;92.10;;;;;;5071611;28;20664;-54
2020/12/17 04:03:48;;;;;;;12.37;11.17;;;9.30;92.10;;;;;;5072276;28;21078;-54
2020/12/17 04:06:15;;;;;;;11.60;10.40;;;9.30;92.00;;;;;;5062111;28;21219;-54
2020/12/17 04:08:43;;;;;;;11.87;10.20;;;9.20;91.90;;;;;;5052113;28;20625;-54
2020/12/17 04:11:09;;;;;;;12.73;11.53;;;9.20;92.00;;;;;;5056336;28;21087;-53
2020/12/17 04:13:36;;;;;;;12.30;9.93;;;9.20;92.10;;;;;;5056248;28;20677;-54
2020/12/17 04:16:03;;;;;;;12.87;10.33;;;9.20;92.20;;;;;;5056522;28;20726;-54
2020/12/17 04:18:30;;;;;;;11.30;10.20;;;9.20;92.20;;;;;;5071853;28;20631;-53
2020/12/17 04:20:57;;;;;;;12.10;10.43;;;9.20;92.40;;;;;;5071700;28;20993;-54
2020/12/17 04:23:23;;;;;;;11.47;10.03;;;9.20;92.50;;;;;;5072019;28;20674;-52
2020/12/17 04:25:51;;;;;;;11.40;10.30;;;9.20;92.50;;;;;;5070601;28;20625;-54
2020/12/17 04:28:18;;;;;;;11.57;10.40;;;9.20;92.50;;;;;;5050796;28;20699;-52
2020/12/17 04:30:44;;;;;;;12.70;11.40;;;9.10;92.50;;;;;;5052144;28;20657;-53
2020/12/17 04:33:11;;;;;;;11.70;10.50;;;9.10;92.50;;;;;;5056253;28;20661;-54
2020/12/17 04:35:38;;;;;;;11.90;10.70;;;9.10;92.50;;;;;;5055875;28;20685;-53
2020/12/17 04:38:05;;;;;;;13.50;11.43;;;9.10;92.50;;;;;;5054010;28;20691;-54
2020/12/17 04:40:31;;;;;;;11.97;10.77;;;9.10;92.50;;;;;;5051717;28;20641;-54
2020/12/17 04:43:00;;;;;;;14.83;10.80;;;9.00;92.50;;;;;;5084077;28;20722;-54
2020/12/17 04:45:27;;;;;;;13.87;12.30;;;9.00;92.50;;;;;;5052515;28;20621;-54
2020/12/17 04:47:54;;;;;;;11.70;10.43;;;9.00;92.50;;;;;;5049956;28;21015;-53
2020/12/17 04:50:21;;;;;;;13.17;11.90;;;9.00;92.50;;;;;;5052018;28;21161;-53
2020/12/17 04:52:47;;;;;;;12.30;11.10;;;9.00;92.60;;;;;;5083681;28;20669;-54
2020/12/17 04:55:14;;;;;;;11.30;9.87;;;9.00;92.60;;;;;;5071291;28;20690;-53
2020/12/17 04:57:44;;;;;;;15.50;12.40;;;9.00;92.70;;;;;;5071306;28;20634;-54
2020/12/17 05:00:11;;;;;;;13.03;11.70;;;9.00;92.60;;;;;;5071830;28;20625;-52
2020/12/17 05:02:38;;;;;;;12.60;11.40;;;9.10;92.70;;;;;;5070107;28;20655;-54
2020/12/17 05:05:05;;;;;;;13.97;10.80;;;9.10;92.80;;;;;;5051421;28;20990;-54
2020/12/17 05:07:32;;;;;;;12.20;11.00;;;9.10;92.90;;;;;;5051870;28;21054;-53
2020/12/17 05:09:59;;;;;;;12.90;10.97;;;9.10;92.90;;;;;;5051731;28;20645;-51
2020/12/17 05:12:30;;;;;;;10.70;9.70;;;9.10;92.70;;;;;;5051824;28;20723;-53
2020/12/17 05:14:58;;;;;;;12.50;11.30;;;9.10;92.60;;;;;;5052172;28;20608;-53
2020/12/17 05:17:27;;;;;;;11.93;10.80;;;9.10;92.70;;;;;;5049948;28;20671;-53
2020/12/17 05:19:54;;;;;;;12.00;10.80;;;9.10;92.70;;;;;;5057376;28;20626;-55
2020/12/17 05:22:21;;;;;;;13.43;12.03;;;9.10;92.80;;;;;;5071694;28;21043;-53
2020/12/17 05:24:47;;;;;;;13.47;12.07;;;9.10;92.80;;;;;;5071502;28;20629;-52
2020/12/17 05:27:14;;;;;;;11.90;10.73;;;9.10;92.80;;;;;;5071430;28;20961;-52
2020/12/17 05:29:41;;;;;;;13.07;11.77;;;9.10;92.90;;;;;;5071031;28;20993;-52
2020/12/17 05:32:08;;;;;;;13.23;11.87;;;9.10;92.90;;;;;;5071147;28;20721;-53
2020/12/17 05:34:36;;;;;;;14.20;12.80;;;9.10;92.90;;;;;;5057428;28;20683;-52
2020/12/17 05:37:05;;;;;;;21.10;13.70;;;9.10;92.70;;;;;;5056160;28;20632;-53
2020/12/17 05:39:32;;;;;;;17.10;13.47;;;9.10;92.50;;;;;;5067186;28;20632;-52
2020/12/17 05:41:59;;;;;;;16.03;13.33;;;9.00;92.50;;;;;;5066280;28;20618;-53
2020/12/17 05:44:27;;;;;;;15.10;13.50;;;9.00;92.50;;;;;;5056349;28;20630;-54
2020/12/17 05:46:54;;;;;;;16.47;14.87;;;9.00;92.50;;;;;;5065444;28;21242;-54
2020/12/17 05:49:22;;;;;;;15.63;14.13;;;9.00;92.70;;;;;;5055912;28;20625;-54
2020/12/17 05:51:51;;;;;;;19.60;16.70;;;9.00;92.50;;;;;;5071917;28;21049;-55
2020/12/17 05:54:21;;;;;;;19.20;13.37;;;9.00;92.50;;;;;;5075966;28;20635;-54
2020/12/17 05:56:50;;;;;;;16.37;14.60;;;9.00;92.30;;;;;;5095320;28;21190;-54
2020/12/17 05:59:22;;;;;;;18.10;14.67;;;9.00;92.30;;;;;;5083529;28;20633;-54
2020/12/17 06:01:49;;;;;;;15.40;13.00;;;9.00;92.30;;;;;;5063513;28;20679;-54
2020/12/17 06:04:16;;;;;;;18.60;16.30;;;8.90;92.30;;;;;;5059243;28;21168;-53
2020/12/17 06:06:45;;;;;;;20.60;14.90;;;8.90;92.40;;;;;;5074172;28;21253;-54
2020/12/17 06:09:19;;;;;;;15.90;14.23;;;9.00;92.50;;;;;;5074323;28;20689;-54
2020/12/17 06:11:46;;;;;;;19.50;14.00;;;9.00;92.50;;;;;;5074187;28;20651;-52
2020/12/17 06:14:14;;;;;;;16.40;14.70;;;9.00;92.60;;;;;;5074668;28;20686;-52
2020/12/17 06:16:42;;;;;;;14.57;13.07;;;9.00;92.60;;;;;;5074589;28;20627;-53
2020/12/17 06:19:11;;;;;;;15.00;13.37;;;9.00;92.60;;;;;;5074246;28;20693;-53
2020/12/17 06:21:39;;;;;;;18.43;13.17;;;9.10;92.60;;;;;;5074046;28;20625;-52
2020/12/17 06:24:06;;;;;;;14.80;13.30;;;9.10;92.90;;;;;;5073657;28;20671;-53
2020/12/17 06:26:39;;;;;;;18.30;12.03;;;9.20;93.00;;;;;;5073766;28;20629;-54
2020/12/17 06:29:16;;;;;;;14.30;12.67;;;9.20;93.00;;;;;;5073941;28;21015;-53
2020/12/17 06:31:53;;;;;;;15.57;12.90;;;9.30;92.90;;;;;;5072242;28;20713;-52
2020/12/17 06:34:20;;;;;;;14.10;12.63;;;9.20;92.90;;;;;;5073333;28;20898;-53
2020/12/17 06:36:48;;;;;;;13.90;12.50;;;9.20;93.00;;;;;;5070703;28;21032;-53
2020/12/17 06:39:15;;;;;;;13.33;11.93;;;9.20;93.00;;;;;;5053928;28;20637;-53
2020/12/17 06:41:43;;;;;;;14.93;13.33;;;9.20;93.10;;;;;;5053686;28;20622;-53
2020/12/17 06:44:24;;;;;;;18.43;13.80;;;9.20;93.10;;;;;;5053250;28;20714;-52
2020/12/17 06:46:54;;;;;;;14.90;12.40;;;9.20;93.10;;;;;;5053707;28;20935;-54
2020/12/17 06:49:23;;;;;;;16.00;14.27;;;9.20;93.10;;;;;;5052790;28;20662;-53
2020/12/17 06:52:00;;;;;;;13.93;12.53;;;9.20;93.00;;;;;;5052202;28;21004;-54
2020/12/17 06:54:40;;;;;;;13.87;12.50;;;9.20;93.10;;;;;;5065925;28;21298;-54
2020/12/17 06:57:09;;;;;;;15.40;13.30;;;9.30;93.10;;;;;;5073006;28;20680;-55
2020/12/17 06:59:37;;;;;;;16.10;13.30;;;9.30;93.20;;;;;;5073667;28;20588;-54
2020/12/17 07:02:04;;;;;;;15.17;13.00;;;9.30;93.10;;;;;;5073474;28;20613;-54
2020/12/17 07:04:39;;;;;;;14.60;13.17;;;9.40;93.10;;;;;;5073505;28;20621;-54
2020/12/17 07:07:16;;;;;;;14.50;12.90;;;9.40;93.10;;;;;;5072834;28;20615;-54
2020/12/17 07:09:44;;;;;;;13.83;12.03;;;9.40;93.00;;;;;;5073740;28;20902;-55
2020/12/17 07:12:13;;;;;;;14.33;12.83;;;9.40;93.00;;;;;;5073295;28;21113;-54
2020/12/17 07:14:41;;;;;;;13.63;12.33;;;9.40;93.00;;;;;;5072464;28;20625;-53
2020/12/17 07:17:08;;;;;;;14.00;12.60;;;9.30;92.90;;;;;;5073633;28;20633;-55
2020/12/17 07:19:39;;;;;;;15.47;13.87;;;9.30;92.80;;;;;;5073054;28;20624;-55
2020/12/17 07:22:06;;;;;;;13.60;11.77;;;9.40;92.90;;;;;;5072387;28;20968;-54
2020/12/17 07:24:35;;;;;;;13.80;12.50;;;9.30;93.10;;;;;;5072989;28;20678;-53
2020/12/17 07:27:07;;;;;;;14.77;13.17;;;9.30;92.90;;;;;;5072363;28;20670;-54
2020/12/17 07:29:39;;;;;;;17.73;13.30;;;9.40;93.00;;;;;;5072237;28;20625;-54
2020/12/17 07:32:39;;;;;;;17.30;14.80;;;9.30;93.20;;;;;;5070549;28;20664;-53
2020/12/17 07:35:17;;;;;;;17.23;15.40;;;9.40;93.60;;;;;;5071689;28;20686;-54
2020/12/17 07:37:45;;;;;;;16.87;13.57;;;9.40;93.90;;;;;;5072335;28;20639;-54
2020/12/17 07:40:23;;;;;;;16.90;14.03;;;9.50;93.90;;;;;;5072641;28;20654;-52
2020/12/17 07:43:00;;;;;;;17.17;13.53;;;9.50;94.10;;;;;;5070454;28;20647;-52
2020/12/17 07:45:48;;;;;;;22.40;14.70;;;9.60;94.20;;;;;;5072377;28;20621;-53
2020/12/17 07:48:35;;;;;;;14.03;11.43;;;9.60;94.20;;;;;;5072447;28;21206;-53
2020/12/17 07:51:03;;;;;;;14.10;12.60;;;9.70;94.40;;;;;;5070640;28;20621;-53
2020/12/17 07:53:30;;;;;;;15.80;12.80;;;9.80;94.50;;;;;;5072149;28;20687;-54
2020/12/17 07:56:01;;;;;;;14.40;12.87;;;9.80;94.50;;;;;;5073037;28;20632;-53
2020/12/17 07:58:29;;;;;;;12.23;10.90;;;9.90;94.50;;;;;;5070911;28;20624;-54
2020/12/17 08:01:01;;;;;;;13.70;12.33;;;10.00;94.00;;;;;;5070515;28;20605;-53
2020/12/17 08:03:28;;;;;;;13.10;11.80;;;10.10;94.00;;;;;;5072008;28;20653;-54
2020/12/17 08:06:04;;;;;;;13.17;11.80;;;10.10;94.00;;;;;;5072016;28;20621;-51
2020/12/17 08:08:30;;;;;;;12.40;10.57;;;10.20;93.90;;;;;;5072222;28;20622;-53
2020/12/17 08:10:58;;;;;;;14.80;12.87;;;10.30;93.90;;;;;;5071718;28;20633;-54
2020/12/17 08:13:25;;;;;;;12.50;11.20;;;10.30;93.80;;;;;;5071938;28;20665;-53
2020/12/17 08:15:53;;;;;;;13.00;11.70;;;10.40;93.80;;;;;;5071820;28;20922;-55
2020/12/17 08:18:24;;;;;;;11.07;10.07;;;10.40;93.80;;;;;;5072001;28;20629;-54
2020/12/17 08:21:03;;;;;;;11.87;10.67;;;10.50;93.70;;;;;;5071686;28;20625;-54
2020/12/17 08:23:30;;;;;;;11.60;10.43;;;10.50;93.70;;;;;;5071605;28;20752;-49
2020/12/17 08:25:59;;;;;;;10.97;9.27;;;10.60;93.50;;;;;;5069726;28;20686;-53
2020/12/17 08:28:28;;;;;;;11.30;9.00;;;10.60;93.40;;;;;;5071501;28;20622;-53
2020/12/17 08:31:02;;;;;;;12.17;9.90;;;10.70;93.30;;;;;;5071283;28;20732;-53
2020/12/17 08:33:30;;;;;;;11.30;9.30;;;10.70;93.30;;;;;;5069010;28;20657;-52
2020/12/17 08:36:06;;;;;;;9.20;8.30;;;10.80;93.40;;;;;;5071309;28;21028;-53
2020/12/17 08:38:34;;;;;;;9.30;8.40;;;10.80;93.20;;;;;;5071285;28;21172;-53
2020/12/17 08:41:02;;;;;;;10.33;9.33;;;10.90;93.10;;;;;;5071431;28;20617;-52
2020/12/17 08:43:33;;;;;;;9.67;8.77;;;10.90;93.10;;;;;;5071100;28;20649;-52
2020/12/17 08:46:00;;;;;;;9.43;8.50;;;10.90;93.20;;;;;;5071833;28;20633;-51
2020/12/17 08:48:28;;;;;;;9.07;8.17;;;11.00;93.10;;;;;;5069775;28;20621;-52
2020/12/17 08:50:57;;;;;;;10.53;8.90;;;11.00;93.20;;;;;;5071561;28;20623;-51
2020/12/17 08:53:24;;;;;;;8.93;8.03;;;11.10;93.30;;;;;;5070529;28;20750;-51
2020/12/17 08:56:11;;;;;;;10.93;8.77;;;11.20;93.10;;;;;;5070986;28;20653;-51
2020/12/17 08:58:50;;;;;;;9.80;8.90;;;11.30;93.00;;;;;;5070886;28;20620;-51
2020/12/17 09:01:26;;;;;;;8.50;7.70;;;11.40;93.20;;;;;;5071403;28;20621;-52
2020/12/17 09:03:53;;;;;;;8.57;7.73;;;11.40;92.90;;;;;;5070772;28;20702;-53
2020/12/17 09:06:26;;;;;;;9.83;8.93;;;11.30;92.80;;;;;;5069209;28;20651;-52
2020/12/17 09:08:53;;;;;;;10.27;9.17;;;11.30;92.80;;;;;;5071039;28;20724;-53
2020/12/17 09:11:32;;;;;;;10.27;9.37;;;11.30;92.90;;;;;;5070698;28;20671;-52
2020/12/17 09:14:00;;;;;;;9.13;8.20;;;11.20;92.70;;;;;;5072995;28;20649;-53
2020/12/17 09:16:30;;;;;;;9.53;8.50;;;11.20;92.90;;;;;;5075060;28;20629;-53
2020/12/17 09:18:57;;;;;;;12.27;9.63;;;11.10;92.50;;;;;;5074509;28;20625;-53
2020/12/17 09:21:25;;;;;;;12.33;10.47;;;11.10;92.60;;;;;;5074911;28;21025;-51
2020/12/17 09:24:02;;;;;;;11.10;10.00;;;11.00;92.70;;;;;;5075018;28;20652;-53
2020/12/17 09:26:29;;;;;;;10.97;9.37;;;11.00;92.70;;;;;;5074838;28;21184;-53
2020/12/17 09:28:58;;;;;;;10.37;9.10;;;11.00;92.70;;;;;;5074876;28;20625;-51
2020/12/17 09:31:26;;;;;;;9.90;7.60;;;11.00;92.80;;;;;;5074942;28;20682;-52
2020/12/17 09:34:09;;;;;;;10.03;8.80;;;11.00;92.70;;;;;;5074774;28;20698;-54
2020/12/17 09:36:38;;;;;;;11.20;9.37;;;11.00;92.70;;;;;;5074000;28;20629;-52
2020/12/17 09:39:07;;;;;;;9.47;8.47;;;11.00;93.00;;;;;;5074701;28;20633;-53
2020/12/17 09:41:34;;;;;;;11.70;9.40;;;11.00;93.10;;;;;;5074836;28;20748;-53
2020/12/17 09:44:01;;;;;;;10.40;9.27;;;11.00;93.00;;;;;;5074903;28;20657;-53
2020/12/17 09:46:41;;;;;;;10.63;7.67;;;11.00;92.80;;;;;;5074948;28;20621;-54
2020/12/17 09:49:09;;;;;;;10.30;9.20;;;11.00;93.00;;;;;;5074726;28;20629;-53
2020/12/17 09:51:37;;;;;;;11.17;9.97;;;10.90;92.70;;;;;;5074100;28;20625;-52
2020/12/17 09:54:04;;;;;;;10.20;9.30;;;11.00;92.70;;;;;;5091498;23;20693;-52
2020/12/17 09:56:31;;;;;;;6.70;6.10;;;10.90;92.70;;;;;;5073585;28;21012;-52
2020/12/17 09:58:57;;;;;;;12.30;10.57;;;11.00;93.20;;;;;;5073453;28;20625;-51
2020/12/17 10:01:24;;;;;;;11.57;10.47;;;10.90;92.60;;;;;;5073306;28;20624;-49
2020/12/17 10:03:51;;;;;;;9.97;9.00;;;10.90;92.60;;;;;;5072950;28;20698;-53
2020/12/17 10:06:18;;;;;;;12.97;10.97;;;10.80;93.00;;;;;;5073541;28;20625;-52
2020/12/17 10:08:46;;;;;;;11.33;10.20;;;10.80;93.50;;;;;;5071554;28;21184;-53
2020/12/17 10:11:13;;;;;;;12.60;11.37;;;10.80;93.20;;;;;;5072684;28;20613;-53
2020/12/17 10:13:40;;;;;;;10.20;9.10;;;10.90;93.00;;;;;;5072988;28;20715;-51
2020/12/17 10:16:07;;;;;;;10.73;8.87;;;10.90;93.10;;;;;;5072978;28;21234;-48
2020/12/17 10:18:33;;;;;;;10.30;9.30;;;10.90;93.20;;;;;;5073522;28;20629;-49
2020/12/17 10:21:00;;;;;;;10.80;9.60;;;10.90;93.40;;;;;;5071415;28;20690;-50
2020/12/17 10:23:27;;;;;;;11.80;10.60;;;10.90;93.30;;;;;;5072395;28;21200;-50
2020/12/17 10:25:55;;;;;;;11.70;9.03;;;10.90;93.10;;;;;;5073013;28;20698;-52
2020/12/17 10:28:22;;;;;;;10.47;9.37;;;10.90;93.60;;;;;;5072377;28;21081;-50
2020/12/17 10:30:48;;;;;;;11.20;10.00;;;10.90;93.30;;;;;;5072823;28;20621;-49
2020/12/17 10:33:15;;;;;;;12.60;10.20;;;11.00;93.20;;;;;;5069328;28;20693;-50
2020/12/17 10:35:42;;;;;;;13.67;9.93;;;10.90;93.20;;;;;;5052717;28;20622;-51
2020/12/17 10:38:09;;;;;;;10.60;9.23;;;11.00;93.20;;;;;;5052447;28;20940;-54
2020/12/17 10:40:36;;;;;;;17.60;12.37;;;10.90;93.10;;;;;;5052668;28;20618;-49
2020/12/17 10:43:04;;;;;;;13.43;9.80;;;10.90;93.30;;;;;;5050806;28;20707;-49
2020/12/17 10:45:30;;;;;;;15.83;9.67;;;10.90;93.30;;;;;;5052803;28;21214;-51
2020/12/17 10:47:57;;;;;;;14.63;9.80;;;10.90;93.30;;;;;;5052538;28;20625;-53
2020/12/17 10:50:24;;;;;;;12.10;10.20;;;11.00;93.40;;;;;;5052090;28;20677;-52
2020/12/17 10:52:51;;;;;;;11.83;10.20;;;11.00;93.40;;;;;;5051684;28;20815;-53
2020/12/17 10:55:18;;;;;;;11.03;9.30;;;11.00;93.50;;;;;;5052617;28;20621;-52
2020/12/17 10:57:44;;;;;;;11.23;9.53;;;11.00;93.40;;;;;;5052054;28;20630;-52
2020/12/17 11:00:12;;;;;;;13.37;10.63;;;11.10;93.30;;;;;;5052196;28;20629;-50
2020/12/17 11:02:39;;;;;;;9.53;8.43;;;11.20;93.60;;;;;;5052656;28;21082;-51
2020/12/17 11:05:06;;;;;;;11.53;10.33;;;11.20;93.20;;;;;;5051690;28;20626;-53
2020/12/17 11:07:33;;;;;;;10.17;9.13;;;11.30;93.20;;;;;;5052063;28;20729;-53
2020/12/17 11:10:00;;;;;;;10.03;9.10;;;11.30;93.30;;;;;;5050262;28;20640;-51
2020/12/17 11:12:26;;;;;;;11.17;10.07;;;11.30;93.50;;;;;;5051867;28;21014;-51
2020/12/17 11:14:53;;;;;;;9.03;8.20;;;11.40;93.30;;;;;;5052010;28;21181;-50
2020/12/17 11:17:21;;;;;;;12.53;8.80;;;11.40;93.20;;;;;;5051677;28;20687;-53
2020/12/17 11:19:48;;;;;;;11.20;10.10;;;11.50;93.30;;;;;;5051369;28;20631;-52
2020/12/17 11:22:14;;;;;;;9.60;8.70;;;11.50;93.20;;;;;;5052065;28;20622;-53
2020/12/17 11:24:41;;;;;;;9.03;8.20;;;11.60;93.50;;;;;;5066328;28;21055;-51
2020/12/17 11:27:08;;;;;;;12.37;9.13;;;11.60;93.30;;;;;;5071470;28;20621;-52
2020/12/17 11:29:35;;;;;;;13.70;9.03;;;11.70;93.30;;;;;;5071718;28;21172;-52
2020/12/17 11:32:02;;;;;;;9.93;8.90;;;11.80;93.30;;;;;;5071658;28;20687;-51
2020/12/17 11:34:29;;;;;;;9.47;8.57;;;11.80;93.30;;;;;;5071279;28;20648;-53
2020/12/17 11:36:56;;;;;;;9.17;8.27;;;11.80;93.40;;;;;;5070984;28;20670;-53
2020/12/17 11:39:23;;;;;;;9.47;8.47;;;11.80;93.60;;;;;;5071391;28;20633;-53
2020/12/17 11:41:50;;;;;;;10.73;8.63;;;11.90;93.60;;;;;;5071584;28;20706;-53
2020/12/17 11:44:17;;;;;;;9.80;7.90;;;11.90;93.30;;;;;;5071579;28;20642;-51
2020/12/17 11:46:44;;;;;;;8.53;7.73;;;12.00;93.30;;;;;;5070500;28;20625;-51
2020/12/17 11:49:11;;;;;;;9.60;8.80;;;12.10;93.20;;;;;;5071037;28;20683;-52
2020/12/17 11:51:38;;;;;;;10.20;9.17;;;12.10;93.30;;;;;;5070839;28;20632;-51
2020/12/17 11:54:05;;;;;;;9.33;8.30;;;12.10;93.20;;;;;;5069206;28;20668;-49
2020/12/17 11:56:32;;;;;;;9.07;8.23;;;12.00;93.30;;;;;;5071823;28;20629;-52
2020/12/17 11:58:59;;;;;;;8.83;8.03;;;12.00;93.50;;;;;;5070962;28;21210;-52
2020/12/17 12:01:29;;;;;;;8.80;7.97;;;12.00;93.30;;;;;;5071101;28;20629;-53
2020/12/17 12:03:56;;;;;;;8.03;7.33;;;12.00;93.70;;;;;;5070740;28;20641;-52
2020/12/17 12:06:22;;;;;;;9.10;7.93;;;12.10;93.50;;;;;;5071294;28;20663;-51
2020/12/17 12:08:50;;;;;;;10.17;9.20;;;12.10;93.40;;;;;;5071123;28;20633;-51
2020/12/17 12:11:17;;;;;;;8.43;7.73;;;12.10;93.40;;;;;;5070944;28;20681;-51
2020/12/17 12:13:44;;;;;;;9.80;8.80;;;12.20;93.30;;;;;;5070664;28;20733;-52
2020/12/17 12:16:12;;;;;;;11.17;8.30;;;12.20;93.40;;;;;;5071204;28;20642;-50
2020/12/17 12:18:41;;;;;;;9.83;8.23;;;12.20;93.20;;;;;;5070518;28;20686;-50
2020/12/17 12:21:09;;;;;;;8.73;7.90;;;12.30;93.40;;;;;;5070497;28;20627;-51
2020/12/17 12:23:36;;;;;;;8.17;7.37;;;12.60;93.20;;;;;;5070672;28;21011;-52
2020/12/17 12:26:04;;;;;;;6.73;6.13;;;13.10;92.30;;;;;;5071057;28;20990;-51
2020/12/17 12:28:31;;;;;;;7.93;6.87;;;13.70;91.70;;;;;;5070659;28;20667;-51
2020/12/17 12:30:58;;;;;;;8.57;7.77;;;14.10;90.50;;;;;;5070749;28;20691;-50
2020/12/17 12:33:24;;;;;;;8.00;7.40;;;14.30;89.20;;;;;;5067446;28;20678;-50
2020/12/17 12:35:51;;;;;;;6.33;5.83;;;14.30;88.60;;;;;;5050942;28;20650;-51
2020/12/17 12:38:18;;;;;;;7.20;6.50;;;14.40;88.10;;;;;;5050164;28;20708;-49
2020/12/17 12:40:45;;;;;;;8.87;6.90;;;14.50;87.60;;;;;;5050862;28;21019;-50